Turtle River, Minnesota
Current Conditions -  °F | °C
As of 6:13 PM on Sunday 23 Nov 2014 (Local Time) from KBJI Reporting Station
Haze Haze  
Wind Chill: 23°   Ceiling: 500
Heat Index: 32°   Visibility: 3mi
Dew Point: 32°   Wind: 12mph
Humidity: 97%   Direction: 270°W
Pressure: 29.41"   Gusts: NA
Location:  47.5271°N, 94.7611°W
Report Text: KBJI 240013Z AUTO 27010KT 3SM BR BKN005 BKN009 OVC018 00/00 A2941 RMK AO2 T00021002
Loading
Personal Weather Stations






























Interactive Weather Map New forecast layout! Learn more

10-Day Weather Forecast

Advertisements
Track Severe Weather on mobile